createdAt,value
2018-03-14T00:00:37.856Z,64.40
2018-03-14T00:03:04.466Z,64.30
2018-03-14T00:05:31.074Z,64.60
2018-03-14T00:07:58.470Z,64.30
2018-03-14T00:10:25.129Z,64.30
2018-03-14T00:12:51.735Z,64.40
2018-03-14T00:15:19.160Z,64.60
2018-03-14T00:17:45.764Z,64.60
2018-03-14T00:20:13.132Z,64.10
2018-03-14T00:22:39.755Z,64.10
2018-03-14T00:25:07.136Z,64.50
2018-03-14T00:27:33.759Z,64.50
2018-03-14T00:30:00.408Z,64.80
2018-03-14T00:32:26.989Z,65.10
2018-03-14T00:34:54.510Z,65.30
2018-03-14T00:37:21.250Z,65.30
2018-03-14T00:39:47.878Z,65.60
2018-03-14T00:42:14.484Z,65.00
2018-03-14T00:44:41.077Z,65.00
2018-03-14T00:47:07.662Z,65.20
2018-03-14T00:49:34.252Z,65.40
2018-03-14T00:52:00.910Z,65.60
2018-03-14T00:54:27.510Z,66.20
2018-03-14T00:56:54.133Z,66.20
2018-03-14T00:59:20.720Z,66.30
2018-03-14T01:01:47.377Z,66.30
2018-03-14T01:04:13.987Z,66.30
2018-03-14T01:06:40.616Z,66.20
2018-03-14T01:09:08.623Z,66.30
2018-03-14T01:11:35.365Z,66.00
2018-03-14T01:14:01.950Z,65.90
2018-03-14T01:16:28.588Z,65.50
2018-03-14T01:18:55.209Z,65.80
2018-03-14T01:21:21.836Z,65.60
2018-03-14T01:23:48.411Z,65.10
2018-03-14T01:26:15.022Z,64.20
2018-03-14T01:28:41.662Z,64.70
2018-03-14T01:31:08.250Z,65.00
2018-03-14T01:33:34.850Z,65.30
2018-03-14T01:36:01.430Z,66.00
2018-03-14T01:38:28.078Z,65.60
2018-03-14T01:40:56.400Z,66.20
2018-03-14T01:43:24.150Z,66.20
2018-03-14T01:45:50.745Z,65.90
2018-03-14T01:48:17.354Z,65.50
2018-03-14T01:50:43.958Z,65.00
2018-03-14T01:53:28.268Z,65.10
2018-03-14T01:55:55.623Z,65.80
2018-03-14T01:58:22.979Z,65.50
2018-03-14T02:00:49.598Z,65.50
2018-03-14T02:03:16.185Z,65.30
2018-03-14T02:05:42.839Z,65.10
2018-03-14T02:08:09.468Z,65.90
2018-03-14T02:10:36.443Z,65.90
2018-03-14T02:13:03.075Z,65.80
2018-03-14T02:15:29.668Z,66.00
2018-03-14T02:17:57.050Z,66.00
2018-03-14T02:20:23.672Z,65.90
2018-03-14T02:22:50.271Z,65.30
2018-03-14T02:25:16.868Z,65.90
2018-03-14T02:27:43.492Z,65.50
2018-03-14T02:30:10.271Z,65.90
2018-03-14T02:32:36.903Z,65.50
2018-03-14T02:35:03.497Z,65.60
2018-03-14T02:37:30.085Z,65.90
2018-03-14T02:39:56.685Z,65.90
2018-03-14T02:42:23.297Z,66.20
2018-03-14T02:44:49.959Z,66.10
2018-03-14T02:47:16.534Z,66.10
2018-03-14T02:49:43.136Z,65.90
2018-03-14T02:52:09.714Z,65.90
2018-03-14T02:54:36.357Z,65.20
2018-03-14T02:57:02.931Z,64.80
2018-03-14T02:59:30.253Z,65.40
2018-03-14T03:01:56.838Z,65.40
2018-03-14T03:04:23.462Z,65.90
2018-03-14T03:06:50.218Z,64.90
2018-03-14T03:09:16.841Z,64.90
2018-03-14T03:11:43.487Z,65.10
2018-03-14T03:14:10.080Z,65.40
2018-03-14T03:16:36.695Z,65.90
2018-03-14T03:19:03.394Z,65.80
2018-03-14T03:21:30.018Z,65.90
2018-03-14T03:23:56.597Z,65.90
2018-03-14T03:26:23.223Z,65.90
2018-03-14T03:28:49.793Z,65.80
2018-03-14T03:31:16.395Z,65.80
2018-03-14T03:33:42.963Z,66.00
2018-03-14T03:36:09.554Z,65.90
2018-03-14T03:38:36.126Z,65.90
2018-03-14T03:41:02.713Z,65.70
2018-03-14T03:43:29.308Z,65.90
2018-03-14T03:45:55.896Z,65.90
2018-03-14T03:48:22.484Z,65.50
2018-03-14T03:50:49.115Z,65.10
2018-03-14T03:53:15.730Z,65.50
2018-03-14T03:55:42.290Z,65.50
2018-03-14T03:58:09.555Z,65.30
2018-03-14T04:00:36.181Z,65.90
2018-03-14T04:03:02.762Z,65.30
2018-03-14T04:05:30.066Z,64.20
2018-03-14T04:07:56.667Z,64.20
2018-03-14T04:10:23.249Z,63.70
2018-03-14T04:12:49.827Z,63.80
2018-03-14T04:15:16.619Z,64.30
2018-03-14T04:17:43.166Z,64.00
2018-03-14T04:20:09.763Z,63.80
2018-03-14T04:22:36.388Z,63.80
2018-03-14T04:25:03.015Z,64.40
2018-03-14T04:27:30.366Z,64.00
2018-03-14T04:29:57.703Z,64.30
2018-03-14T04:32:24.286Z,64.20
2018-03-14T04:34:50.852Z,63.50
2018-03-14T04:37:17.454Z,63.20
2018-03-14T04:39:44.054Z,63.30
2018-03-14T04:42:11.404Z,63.70
2018-03-14T04:44:38.771Z,63.30
2018-03-14T04:47:05.374Z,63.30
2018-03-14T04:49:31.967Z,63.70
2018-03-14T04:51:58.562Z,64.30
2018-03-14T04:54:25.217Z,64.40
2018-03-14T04:56:51.836Z,64.00
2018-03-14T04:59:18.510Z,64.00
2018-03-14T05:01:45.128Z,64.20
2018-03-14T05:04:12.449Z,63.30
2018-03-14T05:06:39.039Z,63.30
2018-03-14T05:09:05.664Z,62.80
2018-03-14T05:11:32.251Z,62.90
2018-03-14T05:13:59.027Z,63.20
2018-03-14T05:16:26.328Z,62.70
2018-03-14T05:18:52.935Z,62.60
2018-03-14T05:21:19.597Z,62.50
2018-03-14T05:23:46.492Z,63.10
2018-03-14T05:26:13.951Z,63.10
2018-03-14T05:28:41.330Z,62.90
2018-03-14T05:31:07.930Z,62.80
2018-03-14T05:33:34.527Z,62.70
2018-03-14T05:36:02.127Z,62.50
2018-03-14T05:38:28.737Z,63.10
2018-03-14T05:40:55.382Z,62.90
2018-03-14T05:43:21.970Z,62.70
2018-03-14T05:45:48.581Z,61.70
2018-03-14T05:48:15.996Z,61.60
2018-03-14T05:50:42.582Z,61.60
2018-03-14T05:53:09.150Z,61.70
2018-03-14T05:55:35.755Z,61.60
2018-03-14T05:58:02.350Z,61.30
2018-03-14T06:00:28.969Z,61.50
2018-03-14T06:02:55.580Z,61.60
2018-03-14T06:05:23.117Z,61.70
2018-03-14T06:07:49.670Z,61.90
2018-03-14T06:10:16.558Z,61.90
2018-03-14T06:12:43.223Z,62.10
2018-03-14T06:15:10.775Z,62.40
2018-03-14T06:17:37.357Z,62.30
2018-03-14T06:20:04.046Z,61.20
2018-03-14T06:22:30.630Z,61.40
2018-03-14T06:24:57.227Z,61.60
2018-03-14T06:27:23.800Z,61.60
2018-03-14T06:29:50.491Z,60.70
2018-03-14T06:32:17.033Z,60.60
2018-03-14T06:34:44.375Z,60.80
2018-03-14T06:37:10.992Z,60.70
2018-03-14T06:39:37.586Z,61.40
2018-03-14T06:42:04.309Z,59.70
2018-03-14T06:44:31.660Z,57.90
2018-03-14T06:46:59.098Z,57.90
2018-03-14T06:49:25.671Z,58.50
2018-03-14T06:51:52.335Z,60.60
2018-03-14T06:54:18.998Z,60.80
2018-03-14T06:56:45.592Z,60.80
2018-03-14T06:59:30.825Z,60.90
2018-03-14T07:02:15.703Z,61.00
2018-03-14T07:05:06.639Z,61.10
2018-03-14T07:07:34.052Z,60.70
2018-03-14T07:10:00.633Z,58.50
2018-03-14T07:12:27.991Z,57.40
2018-03-14T07:14:55.314Z,57.60
2018-03-14T07:17:23.654Z,57.50
2018-03-14T07:19:50.239Z,57.50
2018-03-14T07:22:16.992Z,57.70
2018-03-14T07:24:44.374Z,55.50
2018-03-14T07:27:10.951Z,55.30
2018-03-14T07:29:38.315Z,55.00
2018-03-14T07:32:04.938Z,54.60
2018-03-14T07:34:31.609Z,54.20
2018-03-14T07:36:58.928Z,55.40
2018-03-14T07:39:25.540Z,55.30
2018-03-14T07:41:52.149Z,54.20
2018-03-14T07:44:18.756Z,53.30
2018-03-14T07:46:45.323Z,53.80
2018-03-14T07:49:11.896Z,52.20
2018-03-14T07:51:38.484Z,51.40
2018-03-14T07:54:05.190Z,50.50
2018-03-14T07:56:31.800Z,45.90
2018-03-14T07:58:59.235Z,42.10
2018-03-14T08:01:25.765Z,42.10
2018-03-14T08:03:52.355Z,40.10
2018-03-14T08:06:19.762Z,39.60
2018-03-14T08:08:46.368Z,39.60
2018-03-14T08:11:13.964Z,40.80
2018-03-14T08:13:40.692Z,40.10
2018-03-14T08:16:07.398Z,40.60
2018-03-14T08:18:34.000Z,40.70
2018-03-14T08:21:00.627Z,41.60
2018-03-14T08:23:28.542Z,43.40
2018-03-14T08:25:55.215Z,42.40
2018-03-14T08:28:21.836Z,40.90
2018-03-14T08:30:49.158Z,41.70
2018-03-14T08:33:15.798Z,41.60
2018-03-14T08:35:42.378Z,40.30
2018-03-14T08:38:09.621Z,40.80
2018-03-14T08:40:36.242Z,43.20
2018-03-14T08:43:02.886Z,43.70
2018-03-14T08:45:30.259Z,38.30
2018-03-14T08:47:56.862Z,38.20
2018-03-14T08:50:24.240Z,34.70
2018-03-14T08:52:50.802Z,34.70
2018-03-14T08:55:17.382Z,33.10
2018-03-14T08:57:43.938Z,31.70
2018-03-14T09:00:10.549Z,30.90
2018-03-14T09:02:37.137Z,29.70
2018-03-14T09:05:03.995Z,30.40
2018-03-14T09:07:30.664Z,28.30
2018-03-14T09:09:57.262Z,28.30
2018-03-14T09:12:23.833Z,27.90
2018-03-14T09:14:50.410Z,28.30
2018-03-14T09:17:17.022Z,30.40
2018-03-14T09:19:43.627Z,30.60
2018-03-14T09:22:10.275Z,33.10
2018-03-14T09:24:36.866Z,33.10
2018-03-14T09:27:03.501Z,35.40
2018-03-14T09:29:30.139Z,36.20
2018-03-14T09:31:56.964Z,36.40
2018-03-14T09:34:24.560Z,36.50
2018-03-14T09:36:51.166Z,36.40
2018-03-14T09:39:18.541Z,37.40
2018-03-14T09:41:45.131Z,37.40
2018-03-14T09:44:11.800Z,36.30
2018-03-14T09:46:38.394Z,35.60
2018-03-14T09:49:05.035Z,32.90
2018-03-14T09:51:31.676Z,32.10
2018-03-14T09:53:59.072Z,21.00
2018-03-14T09:56:25.719Z,21.00
2018-03-14T09:58:52.577Z,18.20
2018-03-14T10:01:19.201Z,18.10
2018-03-14T10:03:45.820Z,17.40
2018-03-14T10:06:12.459Z,17.50
2018-03-14T10:08:39.782Z,17.20
2018-03-14T10:11:06.446Z,17.10
2018-03-14T10:13:33.776Z,14.90
2018-03-14T10:16:00.387Z,14.90
2018-03-14T10:18:26.983Z,14.70
2018-03-14T10:20:53.620Z,14.50
2018-03-14T10:23:20.257Z,15.00
2018-03-14T10:25:46.881Z,17.10
2018-03-14T10:28:14.228Z,20.30
2018-03-14T10:30:40.812Z,20.30
2018-03-14T10:33:07.398Z,22.20
2018-03-14T10:35:34.007Z,22.10
2018-03-14T10:38:00.598Z,22.80
2018-03-14T10:40:27.174Z,22.40
2018-03-14T10:42:53.757Z,23.70
2018-03-14T10:45:21.963Z,19.50
2018-03-14T10:47:48.550Z,19.50
2018-03-14T10:50:15.129Z,19.10
2018-03-14T10:52:41.714Z,16.90
2018-03-14T10:55:08.557Z,17.00
2018-03-14T10:57:35.983Z,14.60
2018-03-14T11:00:02.596Z,14.50
2018-03-14T11:02:30.152Z,15.10
2018-03-14T11:04:56.722Z,15.40
2018-03-14T11:07:24.121Z,18.10
2018-03-14T11:09:50.711Z,17.50
2018-03-14T11:12:17.328Z,15.90
2018-03-14T11:14:44.741Z,16.40
2018-03-14T11:17:11.357Z,17.70
2018-03-14T11:19:37.997Z,19.40
2018-03-14T11:22:04.640Z,18.20
2018-03-14T11:24:31.311Z,19.40
2018-03-14T11:26:59.691Z,19.70
2018-03-14T11:29:27.015Z,20.70
2018-03-14T11:31:53.673Z,20.60
2018-03-14T11:34:20.347Z,21.90
2018-03-14T11:36:46.902Z,22.60
2018-03-14T11:39:13.484Z,23.40
2018-03-14T11:41:40.130Z,22.70
2018-03-14T11:44:06.706Z,24.40
2018-03-14T11:46:33.394Z,23.20
2018-03-14T11:48:59.974Z,23.50
2018-03-14T11:51:26.570Z,24.00
2018-03-14T11:53:53.908Z,23.30
2018-03-14T11:56:20.479Z,23.20
2018-03-14T11:58:47.031Z,22.80
2018-03-14T12:01:13.612Z,22.80
2018-03-14T12:03:40.191Z,22.30
2018-03-14T12:06:06.755Z,23.70
2018-03-14T12:08:33.346Z,23.40
2018-03-14T12:11:00.679Z,22.40
2018-03-14T12:13:27.297Z,22.40
2018-03-14T12:15:53.960Z,23.60
2018-03-14T12:18:21.345Z,23.20
2018-03-14T12:20:48.218Z,23.20
2018-03-14T12:23:15.670Z,24.50
2018-03-14T12:25:42.252Z,24.30
2018-03-14T12:28:08.859Z,24.30
2018-03-14T12:30:35.443Z,24.30
2018-03-14T12:33:02.054Z,24.70
2018-03-14T12:35:28.925Z,24.40
2018-03-14T12:37:55.499Z,24.40
2018-03-14T12:40:22.098Z,23.60
2018-03-14T12:42:48.703Z,24.30
2018-03-14T12:45:15.277Z,24.20
2018-03-14T12:47:41.880Z,23.70
2018-03-14T12:50:08.459Z,24.00
2018-03-14T12:52:35.325Z,24.10
2018-03-14T12:55:01.971Z,23.80
2018-03-14T12:57:28.580Z,23.30
2018-03-14T12:59:55.307Z,23.50
2018-03-14T13:02:21.914Z,23.30
2018-03-14T13:04:48.522Z,23.50
2018-03-14T13:07:15.227Z,23.50
2018-03-14T13:09:41.800Z,23.80
2018-03-14T13:12:08.410Z,25.20
2018-03-14T13:14:35.205Z,24.00
2018-03-14T13:17:01.861Z,24.40
2018-03-14T13:19:29.206Z,23.90
2018-03-14T13:21:55.806Z,23.90
2018-03-14T13:24:22.375Z,24.30
2018-03-14T13:26:49.715Z,25.30
2018-03-14T13:29:16.498Z,25.30
2018-03-14T13:31:43.120Z,24.10
2018-03-14T13:34:10.561Z,24.60
2018-03-14T13:36:37.175Z,24.80
2018-03-14T13:39:03.830Z,25.40
2018-03-14T13:41:30.445Z,26.10
2018-03-14T13:43:57.046Z,25.40
2018-03-14T13:46:23.666Z,25.20
2018-03-14T13:48:50.474Z,25.50
2018-03-14T13:51:17.075Z,26.50
2018-03-14T13:53:43.655Z,26.90
2018-03-14T13:56:11.403Z,27.00
2018-03-14T13:58:38.001Z,27.00
2018-03-14T14:01:04.631Z,26.40
2018-03-14T14:03:31.206Z,26.90
2018-03-14T14:05:57.809Z,26.30
2018-03-14T14:08:24.391Z,26.90
2018-03-14T14:10:50.962Z,26.90
2018-03-14T14:13:17.600Z,26.80
2018-03-14T14:15:44.214Z,26.30
2018-03-14T14:18:11.032Z,26.80
2018-03-14T14:20:37.606Z,26.60
2018-03-14T14:23:05.574Z,26.80
2018-03-14T14:25:32.286Z,26.70
2018-03-14T14:27:58.900Z,26.70
2018-03-14T14:30:25.485Z,27.80
2018-03-14T14:32:53.134Z,27.90
2018-03-14T14:35:19.741Z,26.70
2018-03-14T14:37:46.319Z,26.70
2018-03-14T14:40:13.630Z,26.80
2018-03-14T14:42:40.200Z,26.70
2018-03-14T14:45:06.806Z,26.70
2018-03-14T14:47:33.421Z,26.80
2018-03-14T14:50:00.019Z,26.80
2018-03-14T14:52:26.647Z,26.70
2018-03-14T14:54:53.950Z,26.70
2018-03-14T14:57:20.534Z,26.70
2018-03-14T14:59:47.124Z,27.40
2018-03-14T15:02:13.902Z,26.70
2018-03-14T15:04:40.482Z,26.70
2018-03-14T15:07:07.071Z,26.60
2018-03-14T15:09:33.647Z,26.80
2018-03-14T15:12:00.250Z,26.80
2018-03-14T15:14:27.774Z,26.80
2018-03-14T15:16:54.378Z,26.80
2018-03-14T15:19:20.999Z,26.80
2018-03-14T15:21:47.630Z,26.80
2018-03-14T15:24:14.178Z,26.70
2018-03-14T15:26:41.526Z,26.60
2018-03-14T15:29:08.863Z,26.70
2018-03-14T15:31:35.486Z,26.70
2018-03-14T15:34:02.111Z,26.70
2018-03-14T15:36:28.728Z,26.50
2018-03-14T15:38:55.356Z,27.20
2018-03-14T15:41:21.994Z,26.80
2018-03-14T15:43:48.602Z,26.60
2018-03-14T15:46:16.031Z,27.10
2018-03-14T15:48:43.375Z,27.30
2018-03-14T15:51:09.951Z,27.30
2018-03-14T15:53:37.248Z,27.60
2018-03-14T15:56:04.022Z,27.60
2018-03-14T15:58:31.208Z,27.50
2018-03-14T16:00:57.818Z,27.30
2018-03-14T16:03:24.663Z,28.00
2018-03-14T16:05:51.253Z,29.20
2018-03-14T16:08:17.859Z,29.10
2018-03-14T16:10:45.182Z,29.70
2018-03-14T16:13:11.816Z,29.60
2018-03-14T16:15:38.398Z,30.00
2018-03-14T16:18:05.033Z,30.00
2018-03-14T16:20:31.657Z,29.60
2018-03-14T16:22:58.309Z,29.80
2018-03-14T16:25:25.775Z,30.00
2018-03-14T16:27:52.393Z,30.00
2018-03-14T16:30:18.963Z,30.00
2018-03-14T16:32:45.571Z,30.00
2018-03-14T16:35:12.207Z,30.60
2018-03-14T16:37:38.817Z,30.00
2018-03-14T16:40:06.174Z,30.80
2018-03-14T16:42:32.780Z,30.80
2018-03-14T16:44:59.358Z,30.80
2018-03-14T16:47:26.115Z,30.80
2018-03-14T16:49:52.707Z,30.80
2018-03-14T16:52:20.458Z,30.70
2018-03-14T16:54:47.047Z,30.60
2018-03-14T16:57:13.641Z,31.00
2018-03-14T16:59:40.300Z,31.20
2018-03-14T17:02:07.662Z,31.20
2018-03-14T17:04:34.291Z,31.20
2018-03-14T17:07:01.631Z,32.00
2018-03-14T17:09:29.190Z,32.00
2018-03-14T17:11:55.806Z,32.00
2018-03-14T17:14:27.280Z,31.70
2018-03-14T17:16:49.039Z,31.70
2018-03-14T17:19:15.787Z,32.30
2018-03-14T17:21:42.406Z,32.30
2018-03-14T17:24:09.013Z,32.40
2018-03-14T17:26:35.654Z,32.80
2018-03-14T17:29:02.286Z,33.10
2018-03-14T17:31:29.855Z,33.60
2018-03-14T17:33:57.447Z,33.90
2018-03-14T17:36:24.093Z,33.90
2018-03-14T17:38:50.832Z,34.00
2018-03-14T17:41:17.463Z,34.00
2018-03-14T17:43:44.186Z,34.50
2018-03-14T17:46:10.848Z,34.70
2018-03-14T17:48:37.706Z,34.70
2018-03-14T17:51:04.326Z,34.40
2018-03-14T17:53:30.899Z,34.60
2018-03-14T17:55:57.527Z,34.70
2018-03-14T17:58:24.118Z,34.50
2018-03-14T18:00:51.518Z,34.50
2018-03-14T18:03:18.151Z,34.40
2018-03-14T18:05:44.877Z,35.00
2018-03-14T18:08:11.516Z,35.40
2018-03-14T18:10:38.200Z,35.60
2018-03-14T18:13:04.845Z,35.60
2018-03-14T18:15:31.602Z,36.40
2018-03-14T18:17:58.957Z,36.70
2018-03-14T18:20:25.548Z,36.70
2018-03-14T18:22:53.107Z,37.80
2018-03-14T18:25:19.819Z,38.50
2018-03-14T18:27:47.019Z,38.80
2018-03-14T18:30:13.648Z,38.80
2018-03-14T18:32:40.285Z,38.80
2018-03-14T18:35:06.941Z,38.70
2018-03-14T18:37:33.560Z,39.20
2018-03-14T18:40:00.213Z,39.10
2018-03-14T18:42:28.748Z,40.40
2018-03-14T18:44:55.370Z,40.40
2018-03-14T18:47:21.960Z,41.20
2018-03-14T18:49:49.465Z,41.60
2018-03-14T18:52:16.260Z,41.60
2018-03-14T18:54:43.668Z,41.20
2018-03-14T18:57:10.312Z,41.10
2018-03-14T18:59:36.948Z,41.00
2018-03-14T19:02:03.639Z,41.20
2018-03-14T19:04:31.242Z,42.80
2018-03-14T19:06:57.858Z,42.70
2018-03-14T19:09:24.507Z,42.70
2018-03-14T19:11:51.160Z,42.70
2018-03-14T19:14:17.805Z,42.80
2018-03-14T19:16:44.430Z,42.80
2018-03-14T19:19:11.076Z,42.20
2018-03-14T19:21:37.679Z,42.30
2018-03-14T19:24:05.045Z,41.70
2018-03-14T19:26:31.654Z,41.00
2018-03-14T19:28:58.261Z,41.50
2018-03-14T19:31:25.614Z,41.00
2018-03-14T19:33:52.251Z,40.90
2018-03-14T19:36:19.615Z,42.30
2018-03-14T19:38:46.307Z,42.30
2018-03-14T19:41:13.246Z,44.90
2018-03-14T19:43:39.877Z,42.40
2018-03-14T19:46:07.257Z,42.60
2018-03-14T19:48:33.885Z,42.60
2018-03-14T19:51:00.554Z,46.00
2018-03-14T19:53:27.179Z,42.60
2018-03-14T19:55:53.831Z,43.10
2018-03-14T19:58:21.107Z,42.70
2018-03-14T20:00:47.796Z,43.00
2018-03-14T20:03:14.465Z,43.40
2018-03-14T20:05:41.129Z,44.30
2018-03-14T20:08:07.749Z,47.40
2018-03-14T20:10:34.357Z,48.30
2018-03-14T20:13:00.953Z,45.00
2018-03-14T20:15:28.343Z,45.10
2018-03-14T20:17:54.932Z,48.40
2018-03-14T20:20:22.342Z,46.00
2018-03-14T20:22:49.016Z,45.90
2018-03-14T20:25:15.599Z,46.50
2018-03-14T20:27:42.339Z,46.50
2018-03-14T20:30:09.719Z,46.10
2018-03-14T20:32:36.344Z,47.60
2018-03-14T20:35:02.999Z,49.00
2018-03-14T20:37:29.611Z,51.60
2018-03-14T20:39:56.211Z,55.50
2018-03-14T20:42:23.579Z,46.80
2018-03-14T20:44:50.234Z,60.50
2018-03-14T20:47:16.855Z,56.60
2018-03-14T20:49:43.510Z,63.40
2018-03-14T20:52:10.268Z,55.00
2018-03-14T20:54:36.903Z,53.20
2018-03-14T20:57:03.575Z,61.30
2018-03-14T20:59:30.202Z,50.40
2018-03-14T21:01:57.579Z,47.50
2018-03-14T21:04:24.197Z,48.00
2018-03-14T21:06:50.830Z,47.90
2018-03-14T21:09:17.448Z,47.90
2018-03-14T21:11:44.105Z,48.00
2018-03-14T21:14:10.767Z,48.20
2018-03-14T21:16:37.966Z,48.70
2018-03-14T21:19:04.595Z,57.10
2018-03-14T21:21:31.259Z,49.30
2018-03-14T21:23:57.883Z,49.50
2018-03-14T21:26:24.490Z,50.30
2018-03-14T21:28:51.826Z,50.20
2018-03-14T21:31:18.443Z,49.90
2018-03-14T21:33:45.855Z,49.90
2018-03-14T21:36:12.492Z,50.40
2018-03-14T21:38:39.103Z,56.40
2018-03-14T21:41:06.479Z,49.60
2018-03-14T21:43:33.134Z,49.90
2018-03-14T21:45:59.858Z,50.00
2018-03-14T21:48:26.499Z,49.80
2018-03-14T21:50:53.140Z,49.70
2018-03-14T21:53:19.890Z,49.60
2018-03-14T21:55:46.539Z,49.60
2018-03-14T21:58:13.334Z,49.30
2018-03-14T22:00:39.911Z,49.40
2018-03-14T22:03:06.549Z,49.70
2018-03-14T22:05:33.229Z,49.80
2018-03-14T22:07:59.847Z,50.80
2018-03-14T22:10:26.450Z,55.60
2018-03-14T22:12:53.144Z,55.10
2018-03-14T22:15:19.751Z,51.10
2018-03-14T22:17:46.412Z,51.60
2018-03-14T22:20:13.066Z,52.00
2018-03-14T22:22:40.449Z,52.00
2018-03-14T22:25:07.315Z,52.50
2018-03-14T22:27:33.916Z,52.40
2018-03-14T22:30:00.539Z,52.60
2018-03-14T22:32:27.851Z,52.50
2018-03-14T22:34:54.434Z,53.50
2018-03-14T22:37:21.779Z,52.40
2018-03-14T22:39:49.116Z,52.40
2018-03-14T22:42:15.682Z,59.50
2018-03-14T22:44:43.150Z,52.30
2018-03-14T22:47:09.932Z,52.50
2018-03-14T22:49:36.518Z,52.60
2018-03-14T22:52:03.170Z,52.70
2018-03-14T22:54:29.739Z,52.60
2018-03-14T22:56:56.342Z,58.10
2018-03-14T22:59:22.999Z,53.00
2018-03-14T23:01:49.640Z,55.90
2018-03-14T23:04:16.312Z,53.00
2018-03-14T23:06:42.872Z,53.10
2018-03-14T23:09:09.513Z,57.90
2018-03-14T23:11:36.136Z,62.50
2018-03-14T23:14:03.481Z,52.80
2018-03-14T23:16:30.515Z,63.20
2018-03-14T23:18:57.138Z,72.10
2018-03-14T23:21:23.753Z,70.00
2018-03-14T23:23:50.348Z,68.50
2018-03-14T23:26:18.586Z,52.80
2018-03-14T23:28:45.205Z,65.80
2018-03-14T23:31:11.847Z,64.80
2018-03-14T23:33:38.431Z,64.90
2018-03-14T23:36:05.012Z,65.40
2018-03-14T23:38:31.619Z,65.30
2018-03-14T23:40:59.091Z,53.10
2018-03-14T23:43:25.747Z,64.60
2018-03-14T23:45:52.897Z,67.10
2018-03-14T23:48:19.646Z,65.10
2018-03-14T23:50:46.237Z,66.60
2018-03-14T23:53:13.567Z,53.50
2018-03-14T23:55:40.174Z,61.30
2018-03-14T23:58:06.768Z,66.60
